Time;durP1;ratioP1;P1;durP2;ratioP2;P2;SDS_P1;SDS_P2;PMS_P1;PMS_P2;Temp;Humidity;BMP_temperature;BMP_pressure;BME280_temperature;BME280_humidity;BME280_pressure;Samples;Min_cycle;Max_cycle;Signal;HPM_P1;HPM_P2
2021/12/23 00:02:20;;;;;;;19.30;11.70;;;-0.90;99.90;;;;;;5069286;28;20173;-78
2021/12/23 00:04:45;;;;;;;20.40;11.98;;;-1.00;99.90;;;;;;5071025;28;20048;-78
2021/12/23 00:07:11;;;;;;;24.20;11.98;;;-1.00;99.90;;;;;;5066712;28;20040;-78
2021/12/23 00:10:03;;;;;;;19.10;11.65;;;-1.00;99.90;;;;;;5068771;28;20044;-78
2021/12/23 00:12:22;;;;;;;20.35;10.30;;;-1.00;99.90;;;;;;5063818;28;20056;-78
2021/12/23 00:14:50;;;;;;;20.75;11.95;;;-1.00;99.90;;;;;;5070400;28;20054;-78
2021/12/23 00:20:00;;;;;;;22.40;11.57;;;0.10;99.90;;;;;;5071929;28;20048;-78
2021/12/23 00:25:10;;;;;;;19.52;12.32;;;-0.90;99.90;;;;;;5069580;28;20044;-78
2021/12/23 00:27:35;;;;;;;19.13;12.65;;;-0.90;99.90;;;;;;5063645;28;20036;-78
2021/12/23 00:30:01;;;;;;;21.48;12.88;;;-0.90;99.90;;;;;;5071758;28;20036;-78
2021/12/23 00:32:26;;;;;;;21.42;12.40;;;-0.90;99.90;;;;;;5065085;28;20470;-78
2021/12/23 00:34:52;;;;;;;20.67;12.55;;;-0.90;99.90;;;;;;5067695;28;20046;-78
2021/12/23 00:37:18;;;;;;;23.38;12.55;;;-0.90;99.90;;;;;;5068961;28;20431;-78
2021/12/23 00:39:45;;;;;;;21.02;12.18;;;-0.70;99.90;;;;;;5071455;28;20062;-78
2021/12/23 00:42:11;;;;;;;21.73;12.85;;;-0.80;99.90;;;;;;5062154;28;20136;-78
2021/12/23 00:44:46;;;;;;;23.75;12.88;;;-0.80;99.90;;;;;;5061546;28;20119;-78
2021/12/23 00:47:11;;;;;;;21.60;12.05;;;-0.80;99.90;;;;;;5086353;28;20143;-78
2021/12/23 00:49:37;;;;;;;22.77;12.55;;;-0.80;99.90;;;;;;5070731;28;20127;-78
2021/12/23 00:52:05;;;;;;;22.35;11.70;;;-0.80;99.90;;;;;;5066694;28;20091;-78
2021/12/23 00:54:30;;;;;;;21.50;11.15;;;-0.80;99.90;;;;;;5069562;28;20494;-78
2021/12/23 00:56:56;;;;;;;21.98;11.95;;;-0.80;99.90;;;;;;5088598;28;20036;-78
2021/12/23 00:59:22;;;;;;;21.17;11.95;;;-0.70;99.90;;;;;;5068955;28;20092;-78
2021/12/23 01:01:48;;;;;;;24.95;14.00;;;-0.70;99.90;;;;;;5091196;28;20040;-78
2021/12/23 01:04:14;;;;;;;21.95;13.15;;;-0.30;99.90;;;;;;5069069;28;20056;-78
2021/12/23 01:06:39;;;;;;;19.33;11.35;;;-0.60;99.90;;;;;;5066761;28;20074;-78
2021/12/23 01:09:05;;;;;;;20.05;11.88;;;-0.70;99.90;;;;;;5072259;28;20067;-78
2021/12/23 01:11:31;;;;;;;23.45;12.15;;;0.00;99.90;;;;;;5067356;28;20117;-78
2021/12/23 01:14:25;;;;;;;23.73;13.93;;;-0.70;99.90;;;;;;5067799;28;20048;-78
2021/12/23 01:17:00;;;;;;;18.15;9.95;;;-0.70;99.90;;;;;;5086374;28;20067;-78
2021/12/23 01:19:26;;;;;;;22.52;13.20;;;-0.70;99.90;;;;;;5071837;28;20038;-78
2021/12/23 01:21:53;;;;;;;22.00;11.75;;;-0.70;99.90;;;;;;5074089;28;20036;-78
2021/12/23 01:24:20;;;;;;;23.95;12.98;;;-0.60;99.90;;;;;;5089140;28;20403;-78
2021/12/23 01:26:45;;;;;;;21.65;11.98;;;-0.60;99.90;;;;;;5065725;28;20083;-78
2021/12/23 01:29:12;;;;;;;22.38;13.15;;;-0.60;99.90;;;;;;5091701;28;20075;-78
2021/12/23 01:31:38;;;;;;;21.38;12.40;;;-0.60;99.90;;;;;;5092350;28;20398;-78
2021/12/23 01:34:05;;;;;;;21.95;12.80;;;-0.60;99.90;;;;;;5069093;28;20916;-78
2021/12/23 01:36:31;;;;;;;21.83;12.65;;;-0.50;99.90;;;;;;5070962;28;20043;-78
2021/12/23 01:38:56;;;;;;;20.45;12.32;;;-0.50;99.90;;;;;;5072464;28;20054;-78
2021/12/23 01:41:24;;;;;;;20.58;12.65;;;-0.60;99.90;;;;;;5091356;28;20067;-78
2021/12/23 01:43:51;;;;;;;23.30;12.30;;;-0.50;99.90;;;;;;5090909;28;20403;-78
2021/12/23 01:46:18;;;;;;;24.52;13.60;;;-0.50;99.90;;;;;;5071850;28;20035;-78
2021/12/23 01:48:44;;;;;;;24.65;13.70;;;-0.50;99.90;;;;;;5071831;28;20052;-78
2021/12/23 01:51:10;;;;;;;22.08;13.02;;;-0.50;99.90;;;;;;5073594;28;20074;-78
2021/12/23 01:53:35;;;;;;;23.60;14.07;;;-0.50;99.90;;;;;;5071231;28;20078;-78
2021/12/23 01:56:03;;;;;;;25.83;13.60;;;-0.40;99.90;;;;;;5069245;28;20040;-78
2021/12/23 01:58:29;;;;;;;24.25;13.65;;;-0.50;99.90;;;;;;5072527;28;20479;-78
2021/12/23 02:00:55;;;;;;;26.60;15.52;;;-0.40;99.90;;;;;;5067528;28;20041;-78
2021/12/23 02:03:21;;;;;;;24.83;15.38;;;-0.40;99.90;;;;;;5071101;28;20419;-78
2021/12/23 02:05:47;;;;;;;23.92;14.25;;;-0.40;99.90;;;;;;5071167;28;20043;-78
2021/12/23 02:08:13;;;;;;;27.67;14.82;;;-0.40;99.90;;;;;;5089638;28;20368;-78
2021/12/23 02:10:41;;;;;;;32.13;15.35;;;-0.40;99.90;;;;;;5069359;28;20527;-78
2021/12/23 02:13:07;;;;;;;25.13;14.68;;;-0.50;99.90;;;;;;5068034;28;20055;-78
2021/12/23 02:15:33;;;;;;;23.55;14.48;;;-0.50;99.90;;;;;;5071602;28;20048;-78
2021/12/23 02:17:59;;;;;;;27.58;15.85;;;-0.30;99.90;;;;;;5072110;28;20068;-78
2021/12/23 02:20:30;;;;;;;25.58;14.70;;;-0.50;99.90;;;;;;5069268;28;20043;-78
2021/12/23 02:22:56;;;;;;;26.58;15.35;;;-0.40;99.90;;;;;;5071279;28;20048;-78
2021/12/23 02:25:22;;;;;;;24.27;14.50;;;-0.20;99.90;;;;;;5069883;28;20047;-78
2021/12/23 02:27:49;;;;;;;29.50;16.45;;;-0.50;99.90;;;;;;5071085;28;20760;-78
2021/12/23 02:30:22;;;;;;;26.75;14.57;;;-0.50;99.90;;;;;;5074023;28;20044;-78
2021/12/23 02:32:48;;;;;;;28.02;15.48;;;-0.50;99.90;;;;;;5069813;28;20044;-78
2021/12/23 02:35:17;;;;;;;26.33;14.73;;;-0.50;99.90;;;;;;5064414;28;20048;-78
2021/12/23 02:37:44;;;;;;;24.38;14.30;;;-0.50;99.90;;;;;;5066595;28;20055;-78
2021/12/23 02:40:21;;;;;;;24.63;14.73;;;-0.40;99.90;;;;;;5087423;28;20051;-78
2021/12/23 02:42:46;;;;;;;24.73;13.13;;;-0.40;99.90;;;;;;5075554;28;20044;-79
2021/12/23 02:45:12;;;;;;;30.05;16.08;;;-0.40;99.90;;;;;;5070697;28;20395;-78
2021/12/23 02:47:38;;;;;;;26.27;13.75;;;-0.40;99.90;;;;;;5072213;28;20046;-78
2021/12/23 02:50:04;;;;;;;24.15;13.98;;;-0.40;99.90;;;;;;5072244;28;20488;-78
2021/12/23 02:52:31;;;;;;;24.75;14.68;;;-0.40;99.90;;;;;;5071583;28;20044;-78
2021/12/23 02:54:58;;;;;;;23.25;13.82;;;-0.40;99.90;;;;;;5070120;28;20177;-78
2021/12/23 02:57:24;;;;;;;31.70;14.73;;;-0.40;99.90;;;;;;5068407;28;20047;-78
2021/12/23 02:59:51;;;;;;;27.42;14.93;;;-0.40;99.90;;;;;;5070326;28;20036;-78
2021/12/23 03:02:17;;;;;;;25.10;14.95;;;-0.40;99.90;;;;;;5072223;28;20098;-78
2021/12/23 03:04:43;;;;;;;23.02;13.43;;;-0.40;99.90;;;;;;5071620;28;20535;-78
2021/12/23 03:07:08;;;;;;;23.92;13.32;;;-0.40;99.90;;;;;;5069722;28;20127;-78
2021/12/23 03:09:34;;;;;;;26.27;14.10;;;-0.40;99.90;;;;;;5071092;28;20412;-78
2021/12/23 03:11:59;;;;;;;25.40;13.60;;;-0.40;99.90;;;;;;5084821;28;20071;-78
2021/12/23 03:14:25;;;;;;;25.02;14.75;;;-0.40;99.90;;;;;;5068060;28;20452;-78
2021/12/23 03:16:51;;;;;;;23.35;13.68;;;-0.40;99.90;;;;;;5069519;28;20066;-78
2021/12/23 03:19:17;;;;;;;26.83;15.20;;;-0.40;99.90;;;;;;5070774;28;20063;-79
2021/12/23 03:21:45;;;;;;;24.70;14.20;;;-0.40;99.90;;;;;;5069859;28;20044;-78
2021/12/23 03:24:15;;;;;;;24.55;14.35;;;-0.40;99.90;;;;;;5068607;28;20059;-78
2021/12/23 03:26:41;;;;;;;25.65;15.00;;;-0.30;99.90;;;;;;5069974;28;20048;-78
2021/12/23 03:29:08;;;;;;;24.75;13.60;;;-0.30;99.90;;;;;;5070281;28;20063;-78
2021/12/23 03:31:34;;;;;;;27.63;14.45;;;-0.30;99.90;;;;;;5070118;28;20044;-78
2021/12/23 03:34:00;;;;;;;27.95;15.07;;;-0.30;99.90;;;;;;5069536;28;20059;-78
2021/12/23 03:36:26;;;;;;;27.30;14.55;;;-0.30;99.90;;;;;;5069611;28;20437;-78
2021/12/23 03:38:52;;;;;;;23.85;13.57;;;-0.30;99.90;;;;;;5070406;28;20048;-78
2021/12/23 03:41:17;;;;;;;25.38;13.73;;;-0.30;99.90;;;;;;5088851;28;20039;-78
2021/12/23 03:43:43;;;;;;;26.98;15.32;;;-0.30;99.90;;;;;;5068834;28;20048;-78
2021/12/23 03:46:09;;;;;;;32.33;15.02;;;-0.20;99.90;;;;;;5088373;28;20032;-78
2021/12/23 03:48:35;;;;;;;25.05;14.15;;;-0.20;99.90;;;;;;5070149;28;20422;-78
2021/12/23 03:51:00;;;;;;;23.92;13.45;;;-0.20;99.90;;;;;;5071882;28;20098;-78
2021/12/23 03:53:26;;;;;;;25.15;13.52;;;-0.20;99.90;;;;;;5068040;28;20066;-78
2021/12/23 03:55:52;;;;;;;20.83;11.75;;;-0.20;99.90;;;;;;5087240;28;20121;-78
2021/12/23 03:58:18;;;;;;;25.27;14.60;;;-0.20;99.90;;;;;;5068278;28;20032;-78
2021/12/23 04:00:44;;;;;;;27.25;14.88;;;-0.20;99.90;;;;;;5072033;28;20449;-78
2021/12/23 04:03:10;;;;;;;26.73;14.60;;;-0.20;99.90;;;;;;5068856;28;20065;-78
2021/12/23 04:05:36;;;;;;;24.90;14.10;;;-0.20;99.90;;;;;;5066844;28;20039;-78
2021/12/23 04:08:02;;;;;;;24.98;14.75;;;-0.20;99.90;;;;;;5089032;28;20036;-78
2021/12/23 04:10:28;;;;;;;23.95;13.27;;;-0.20;99.90;;;;;;5089272;28;20040;-78
2021/12/23 04:12:53;;;;;;;23.65;14.70;;;-0.10;99.90;;;;;;5065595;28;20055;-78
2021/12/23 04:15:20;;;;;;;26.13;14.13;;;-0.20;99.90;;;;;;5070113;28;20059;-78
2021/12/23 04:17:46;;;;;;;23.42;13.73;;;-0.20;99.90;;;;;;5069507;28;20040;-78
2021/12/23 04:20:19;;;;;;;24.10;14.30;;;-0.20;99.90;;;;;;5067745;28;20127;-78
2021/12/23 04:22:46;;;;;;;25.02;14.38;;;-0.20;99.90;;;;;;5065035;28;20480;-78
2021/12/23 04:25:13;;;;;;;23.33;13.98;;;-0.20;99.90;;;;;;5070578;28;20076;-78
2021/12/23 04:27:39;;;;;;;26.83;13.23;;;-0.10;99.90;;;;;;5087004;28;20381;-78
2021/12/23 04:30:06;;;;;;;24.98;14.45;;;-0.10;99.90;;;;;;5088781;28;20028;-78
2021/12/23 04:32:32;;;;;;;27.00;14.15;;;-0.10;99.90;;;;;;5072321;28;20048;-78
2021/12/23 04:34:58;;;;;;;29.85;15.07;;;-0.10;99.90;;;;;;5072219;28;20399;-78
2021/12/23 04:37:23;;;;;;;27.17;14.32;;;-0.20;99.90;;;;;;5072541;28;20085;-78
2021/12/23 04:39:49;;;;;;;25.20;13.85;;;-0.10;99.90;;;;;;5078781;28;20051;-78
2021/12/23 04:42:14;;;;;;;26.92;14.73;;;-0.20;99.90;;;;;;5069674;28;20052;-78
2021/12/23 04:44:40;;;;;;;27.67;14.45;;;-0.10;99.90;;;;;;5073986;28;20097;-78
2021/12/23 04:47:06;;;;;;;26.98;14.50;;;-0.10;99.90;;;;;;5071513;28;20039;-78
2021/12/23 04:49:31;;;;;;;26.92;13.85;;;-0.10;99.90;;;;;;5067044;28;20123;-78
2021/12/23 04:51:57;;;;;;;26.27;14.38;;;-0.10;99.90;;;;;;5092863;28;20063;-78
2021/12/23 04:54:22;;;;;;;24.30;14.85;;;-0.10;99.90;;;;;;5071062;28;20041;-78
2021/12/23 04:56:48;;;;;;;25.60;14.73;;;-0.10;99.90;;;;;;5091584;28;20043;-78
2021/12/23 04:59:13;;;;;;;22.52;13.73;;;-0.10;99.90;;;;;;5071534;28;20467;-78
2021/12/23 05:01:39;;;;;;;24.13;13.85;;;-0.10;99.90;;;;;;5073919;28;20047;-78
2021/12/23 05:04:05;;;;;;;23.95;13.35;;;-0.10;99.90;;;;;;5068833;28;20052;-78
2021/12/23 05:06:30;;;;;;;25.35;14.43;;;-0.10;99.90;;;;;;5090079;28;20050;-78
2021/12/23 05:08:56;;;;;;;24.52;13.70;;;-0.10;99.90;;;;;;5092159;28;20138;-78
2021/12/23 05:11:22;;;;;;;26.73;14.93;;;0.00;99.90;;;;;;5087196;28;20040;-78
2021/12/23 05:13:47;;;;;;;25.17;13.35;;;0.00;99.90;;;;;;5071993;28;20705;-78
2021/12/23 05:16:19;;;;;;;27.42;15.43;;;0.00;99.90;;;;;;5089821;28;20048;-78
2021/12/23 05:18:45;;;;;;;29.30;14.85;;;0.00;99.90;;;;;;5074071;28;20036;-78
2021/12/23 05:21:10;;;;;;;26.92;15.70;;;0.00;99.90;;;;;;5078677;28;20051;-78
2021/12/23 05:23:36;;;;;;;25.25;15.93;;;0.00;99.90;;;;;;5090337;28;20109;-78
2021/12/23 05:26:05;;;;;;;28.48;14.32;;;0.00;99.90;;;;;;5087848;28;20042;-78
2021/12/23 05:28:31;;;;;;;26.13;13.55;;;0.00;99.90;;;;;;5092441;28;20040;-78
2021/12/23 05:30:57;;;;;;;25.10;14.45;;;0.00;99.90;;;;;;5075238;28;20071;-78
2021/12/23 05:33:23;;;;;;;26.92;15.02;;;0.00;99.90;;;;;;5072825;28;20574;-78
2021/12/23 05:35:48;;;;;;;25.27;13.90;;;0.10;99.90;;;;;;5075272;28;20040;-79
2021/12/23 05:38:14;;;;;;;25.75;14.05;;;0.10;99.90;;;;;;5091312;28;20125;-78
2021/12/23 05:40:40;;;;;;;23.13;13.40;;;0.10;99.90;;;;;;5075655;28;20145;-78
2021/12/23 05:43:06;;;;;;;28.38;14.48;;;0.10;99.90;;;;;;5073586;28;20445;-78
2021/12/23 05:45:31;;;;;;;27.00;14.30;;;0.10;99.90;;;;;;5091422;28;20051;-78
2021/12/23 05:47:57;;;;;;;24.38;14.23;;;0.10;99.90;;;;;;5084443;28;20372;-78
2021/12/23 05:50:24;;;;;;;27.52;14.50;;;0.20;99.90;;;;;;5073195;28;20563;-78
2021/12/23 05:52:51;;;;;;;26.30;14.07;;;0.10;99.90;;;;;;5072067;28;20052;-77
2021/12/23 05:55:17;;;;;;;25.20;14.15;;;0.10;99.90;;;;;;5069172;28;20045;-77
2021/12/23 05:57:43;;;;;;;25.88;14.10;;;0.20;99.90;;;;;;5071110;28;20058;-78
2021/12/23 06:00:27;;;;;;;27.23;13.70;;;0.20;99.90;;;;;;5074434;28;20083;-78
2021/12/23 06:02:53;;;;;;;24.45;14.05;;;0.30;99.90;;;;;;5070505;28;20071;-78
2021/12/23 06:05:20;;;;;;;27.63;14.82;;;0.30;99.90;;;;;;5070481;28;20048;-77
2021/12/23 06:07:46;;;;;;;29.13;14.80;;;0.20;99.90;;;;;;5071907;28;20131;-78
2021/12/23 06:10:12;;;;;;;25.30;13.85;;;0.20;99.90;;;;;;5072225;28;20124;-78
2021/12/23 06:12:38;;;;;;;28.52;14.48;;;0.20;99.90;;;;;;5066351;28;20044;-78
2021/12/23 06:15:05;;;;;;;25.33;14.43;;;0.20;99.90;;;;;;5070442;28;20086;-82
2021/12/23 06:17:31;;;;;;;26.77;15.02;;;0.20;99.90;;;;;;5068646;28;20094;-79
2021/12/23 06:19:56;;;;;;;23.20;14.30;;;0.20;99.90;;;;;;5072954;28;20508;-79
2021/12/23 06:22:22;;;;;;;27.88;14.43;;;0.20;99.90;;;;;;5071776;28;20055;-80
2021/12/23 06:24:49;;;;;;;24.48;14.80;;;0.20;99.90;;;;;;5069995;28;20399;-79
2021/12/23 06:27:16;;;;;;;28.23;14.98;;;0.20;99.90;;;;;;5070558;28;20032;-80
2021/12/23 06:29:43;;;;;;;25.52;14.43;;;0.20;99.90;;;;;;5085300;28;20041;-79
2021/12/23 06:32:08;;;;;;;30.27;14.93;;;0.20;99.90;;;;;;5070293;28;20032;-79
2021/12/23 06:34:43;;;;;;;27.80;14.82;;;0.20;99.90;;;;;;5070843;28;20449;-80
2021/12/23 06:37:09;;;;;;;28.00;16.25;;;0.90;99.90;;;;;;5068439;28;20476;-79
2021/12/23 06:39:36;;;;;;;29.45;15.10;;;0.20;99.90;;;;;;5069963;28;20101;-80
2021/12/23 06:42:02;;;;;;;27.38;14.43;;;0.20;99.90;;;;;;5071164;28;20052;-80
2021/12/23 06:44:28;;;;;;;24.88;14.77;;;0.20;99.90;;;;;;5066422;28;20040;-80
2021/12/23 06:46:53;;;;;;;29.35;15.63;;;0.20;99.90;;;;;;5071398;28;20399;-78
2021/12/23 06:49:22;;;;;;;29.90;15.25;;;0.20;99.90;;;;;;5078673;28;20053;-79
2021/12/23 06:51:48;;;;;;;27.17;16.13;;;0.20;99.90;;;;;;5072542;28;20088;-80
2021/12/23 06:54:15;;;;;;;26.55;15.63;;;0.30;99.90;;;;;;5070540;28;20122;-81
2021/12/23 06:56:41;;;;;;;26.98;15.18;;;0.30;99.90;;;;;;5068095;28;20049;-78
2021/12/23 06:59:06;;;;;;;26.08;16.25;;;0.30;99.90;;;;;;5068997;28;20385;-80
2021/12/23 07:01:32;;;;;;;29.45;15.52;;;0.30;99.90;;;;;;5070789;28;20040;-80
2021/12/23 07:04:14;;;;;;;31.17;16.58;;;0.40;99.90;;;;;;5069968;28;20040;-80
2021/12/23 07:06:47;;;;;;;28.38;15.95;;;1.10;99.90;;;;;;5069772;28;20048;-80
2021/12/23 07:09:14;;;;;;;28.77;16.17;;;0.40;99.90;;;;;;5068983;28;20052;-80
2021/12/23 07:11:39;;;;;;;30.42;15.80;;;0.40;99.90;;;;;;5050306;28;20045;-80
2021/12/23 07:14:05;;;;;;;29.75;16.15;;;0.40;99.90;;;;;;5070933;28;20376;-79
2021/12/23 07:16:32;;;;;;;29.00;16.33;;;0.40;99.90;;;;;;5061461;28;20044;-80
2021/12/23 07:18:57;;;;;;;33.25;16.70;;;0.40;99.90;;;;;;5061492;28;20052;-76
2021/12/23 07:21:23;;;;;;;32.83;16.75;;;0.40;99.90;;;;;;5069968;28;20090;-78
2021/12/23 07:23:48;;;;;;;35.30;17.60;;;0.40;99.90;;;;;;5061769;28;20132;-79
2021/12/23 07:26:15;;;;;;;32.17;16.10;;;0.40;99.90;;;;;;5063742;28;20056;-78
2021/12/23 07:28:41;;;;;;;28.67;16.60;;;0.50;99.90;;;;;;5066823;28;20387;-77
2021/12/23 07:31:06;;;;;;;26.58;15.68;;;0.40;99.90;;;;;;5073112;28;20045;-76
2021/12/23 07:33:32;;;;;;;31.77;16.85;;;0.60;99.90;;;;;;5060420;28;20037;-76
2021/12/23 07:35:58;;;;;;;29.30;14.80;;;0.50;99.90;;;;;;5067370;28;20388;-77
2021/12/23 07:38:23;;;;;;;33.60;17.15;;;0.40;99.90;;;;;;5064107;28;20111;-76
2021/12/23 07:40:49;;;;;;;35.90;17.15;;;0.40;99.90;;;;;;5068451;28;20048;-75
2021/12/23 07:43:31;;;;;;;29.85;17.27;;;0.60;99.90;;;;;;5066527;28;20048;-76
2021/12/23 07:45:59;;;;;;;32.40;16.98;;;0.40;99.90;;;;;;5067643;28;20565;-76
2021/12/23 07:48:24;;;;;;;35.30;18.40;;;0.40;99.90;;;;;;5066357;28;20076;-71
2021/12/23 07:50:50;;;;;;;30.15;16.73;;;;;;;;;;5051560;28;20087;-78
2021/12/23 07:53:16;;;;;;;31.70;17.33;;;0.30;99.90;;;;;;5056175;28;20059;-81
2021/12/23 07:55:42;;;;;;;25.80;15.88;;;0.30;99.90;;;;;;5055986;28;20048;-80
2021/12/23 07:58:09;;;;;;;33.08;18.50;;;0.40;99.90;;;;;;5054942;28;20074;-80
2021/12/23 08:00:35;;;;;;;31.35;15.40;;;1.20;99.90;;;;;;5053341;28;20139;-82
2021/12/23 08:03:01;;;;;;;27.73;15.90;;;0.40;99.90;;;;;;5051676;28;20062;-80
2021/12/23 08:05:27;;;;;;;33.38;17.15;;;0.40;99.90;;;;;;5054318;28;20044;-80
2021/12/23 08:07:54;;;;;;;30.25;17.30;;;0.40;99.90;;;;;;5052683;28;20106;-80
2021/12/23 08:10:20;;;;;;;32.47;17.15;;;0.40;99.90;;;;;;5047546;28;20059;-80
2021/12/23 08:12:46;;;;;;;33.53;17.15;;;0.30;99.90;;;;;;5048108;28;20049;-79
2021/12/23 08:15:11;;;;;;;35.13;18.48;;;0.30;99.90;;;;;;5056937;28;20101;-79
2021/12/23 08:17:38;;;;;;;35.97;19.45;;;0.40;99.90;;;;;;5054201;28;20032;-80
2021/12/23 08:20:05;;;;;;;33.95;18.85;;;0.40;99.90;;;;;;5051556;28;20109;-80
2021/12/23 08:22:31;;;;;;;33.72;17.83;;;0.30;99.90;;;;;;5051325;28;20154;-81
2021/12/23 08:24:56;;;;;;;31.52;17.75;;;0.20;99.90;;;;;;5055105;28;20060;-80
2021/12/23 08:27:26;;;;;;;32.83;18.15;;;0.30;99.90;;;;;;5053810;28;20109;-79
2021/12/23 08:29:51;;;;;;;32.17;18.20;;;0.30;99.90;;;;;;5054386;28;21478;-80
2021/12/23 08:32:18;;;;;;;34.35;19.67;;;0.30;99.90;;;;;;5043274;28;20049;-81
2021/12/23 08:34:44;;;;;;;38.30;19.38;;;0.30;99.90;;;;;;5053889;28;20049;-83
2021/12/23 08:37:11;;;;;;;33.33;18.77;;;0.30;99.90;;;;;;5053109;28;20040;-83
2021/12/23 08:39:41;;;;;;;31.92;18.00;;;0.30;99.90;;;;;;5054085;28;20041;-83
2021/12/23 08:42:07;;;;;;;34.75;19.33;;;0.40;99.90;;;;;;5044910;28;20045;-84
2021/12/23 08:44:33;;;;;;;36.50;19.42;;;0.40;99.90;;;;;;5055062;28;20079;-85
2021/12/23 08:46:59;;;;;;;36.50;18.98;;;0.40;99.90;;;;;;5052945;28;20041;-82
2021/12/23 08:49:25;;;;;;;33.00;18.90;;;0.40;99.90;;;;;;5054276;28;20155;-81
2021/12/23 08:51:52;;;;;;;35.88;19.35;;;0.40;99.90;;;;;;5046859;28;20088;-84
2021/12/23 08:54:18;;;;;;;34.33;19.83;;;0.40;99.90;;;;;;5052438;28;20056;-80
2021/12/23 08:56:44;;;;;;;31.88;18.42;;;0.40;99.90;;;;;;5053931;28;20124;-85
2021/12/23 08:59:09;;;;;;;38.47;19.45;;;0.40;99.90;;;;;;5053601;28;20040;-88
2021/12/23 09:01:35;;;;;;;35.47;19.15;;;0.40;99.90;;;;;;5048468;28;20040;-86
2021/12/23 09:04:01;;;;;;;35.88;19.60;;;0.40;99.90;;;;;;5052443;28;20044;-86
2021/12/23 09:06:27;;;;;;;34.17;18.73;;;0.40;99.90;;;;;;5057442;28;20101;-85
2021/12/23 09:08:54;;;;;;;35.55;19.63;;;0.40;99.90;;;;;;5056429;28;20181;-86
2021/12/23 09:11:20;;;;;;;36.22;20.15;;;0.40;99.90;;;;;;5048326;28;20048;-92
2021/12/23 09:13:46;;;;;;;35.85;19.83;;;0.50;99.90;;;;;;5055361;28;20078;-93
2021/12/23 09:16:11;;;;;;;38.53;19.38;;;0.50;99.90;;;;;;5059633;28;20045;-88
2021/12/23 09:18:37;;;;;;;39.03;20.08;;;0.50;99.90;;;;;;5061049;28;20500;-91
2021/12/23 09:21:04;;;;;;;36.03;20.20;;;1.10;99.90;;;;;;5054513;28;20060;-86
2021/12/23 09:23:30;;;;;;;36.90;20.05;;;0.50;99.90;;;;;;5060434;28;20059;-86
2021/12/23 09:25:56;;;;;;;38.15;21.17;;;0.50;99.90;;;;;;5060949;28;20411;-90
2021/12/23 09:28:37;;;;;;;42.33;22.38;;;0.50;99.90;;;;;;5058303;28;20040;-87
2021/12/23 09:33:47;;;;;;;39.83;22.20;;;0.50;99.90;;;;;;5056921;28;20110;-84
2021/12/23 09:36:13;;;;;;;41.17;21.67;;;0.40;99.90;;;;;;5057216;28;20037;-86
2021/12/23 09:38:39;;;;;;;37.45;20.25;;;0.50;99.90;;;;;;5059056;28;20098;-85
2021/12/23 09:41:09;;;;;;;41.42;22.17;;;0.70;99.90;;;;;;5052430;28;20060;-85
2021/12/23 09:43:39;;;;;;;41.25;22.35;;;0.40;99.90;;;;;;5058325;28;20048;-85
2021/12/23 09:46:05;;;;;;;43.88;22.77;;;0.50;99.90;;;;;;5057568;28;20039;-85
2021/12/23 09:48:32;;;;;;;41.58;21.40;;;0.50;99.90;;;;;;5058452;28;20754;-85
2021/12/23 09:51:04;;;;;;;44.58;23.08;;;0.50;99.90;;;;;;5052823;28;20405;-87
2021/12/23 09:53:31;;;;;;;45.92;23.98;;;0.50;99.90;;;;;;5058469;28;20049;-87
2021/12/23 09:55:58;;;;;;;45.90;24.30;;;0.50;99.90;;;;;;5056898;28;20408;-88
2021/12/23 09:58:24;;;;;;;48.20;25.67;;;0.50;99.90;;;;;;5055292;28;20048;-88
2021/12/23 10:00:51;;;;;;;46.33;24.30;;;0.50;99.90;;;;;;5053368;28;20048;-93
2021/12/23 10:03:19;;;;;;;46.60;24.85;;;0.50;99.90;;;;;;5053147;28;20041;-84
2021/12/23 10:05:45;;;;;;;48.00;25.65;;;0.50;99.90;;;;;;5054583;28;20544;-85
2021/12/23 10:08:13;;;;;;;55.08;25.63;;;0.50;99.90;;;;;;5056741;28;20041;-88
2021/12/23 10:11:05;;;;;;;50.30;26.52;;;0.50;99.90;;;;;;5050913;28;20055;-89
2021/12/23 10:33:11;;;;;;;52.92;28.60;;;0.60;99.90;;;;;;5060834;28;20056;-87
2021/12/23 10:38:42;;;;;;;59.53;30.73;;;0.60;99.90;;;;;;5060236;28;20044;-88
2021/12/23 10:41:14;;;;;;;59.03;28.63;;;0.60;99.90;;;;;;5053902;28;20063;-85
2021/12/23 10:43:43;;;;;;;61.78;29.33;;;0.60;99.90;;;;;;5056094;28;20422;-84
2021/12/23 10:46:22;;;;;;;61.83;30.00;;;0.60;99.90;;;;;;5054141;28;20044;-84
2021/12/23 10:49:14;;;;;;;58.63;28.17;;;0.70;99.90;;;;;;5060326;28;20044;-83
2021/12/23 10:51:55;;;;;;;58.97;27.73;;;0.70;99.90;;;;;;5065358;28;20055;-86
2021/12/23 11:00:36;;;;;;;61.47;29.85;;;0.70;99.90;;;;;;5073967;28;20421;-83
2021/12/23 11:03:28;;;;;;;68.53;30.63;;;0.70;99.90;;;;;;5061615;28;20064;-84
2021/12/23 11:06:06;;;;;;;60.05;30.17;;;0.70;99.90;;;;;;5061261;28;20075;-86
2021/12/23 11:08:56;;;;;;;69.20;31.90;;;0.70;99.90;;;;;;5060329;28;20113;-85
2021/12/23 11:12:00;;;;;;;65.20;29.75;;;0.70;99.90;;;;;;5046633;28;20040;-84
2021/12/23 11:37:07;;;;;;;68.63;32.05;;;0.70;99.90;;;;;;5066205;28;20593;-85
2021/12/23 11:39:51;;;;;;;70.25;30.75;;;0.70;99.90;;;;;;5060858;28;20040;-84
2021/12/23 11:42:35;;;;;;;71.80;31.98;;;0.70;99.90;;;;;;5053919;28;20074;-84
2021/12/23 11:45:03;;;;;;;71.18;33.53;;;1.40;99.90;;;;;;5062755;28;20077;-85
2021/12/23 11:47:29;;;;;;;68.45;31.85;;;0.70;99.90;;;;;;5062788;28;20044;-84
2021/12/23 11:49:55;;;;;;;68.00;33.00;;;0.70;99.90;;;;;;5061793;28;20457;-85
2021/12/23 11:52:21;;;;;;;71.10;32.50;;;0.70;99.90;;;;;;5074032;28;20059;-84
2021/12/23 11:54:47;;;;;;;74.47;32.50;;;1.80;99.90;;;;;;5060705;28;20079;-83
2021/12/23 11:57:22;;;;;;;73.28;32.50;;;0.70;99.90;;;;;;5063999;28;20047;-84
2021/12/23 12:00:07;;;;;;;64.10;31.27;;;0.70;99.90;;;;;;5060930;28;20555;-85
2021/12/23 12:02:33;;;;;;;65.95;31.15;;;0.70;99.90;;;;;;5058679;28;20044;-85
2021/12/23 12:05:03;;;;;;;63.67;30.98;;;0.70;99.90;;;;;;5063113;28;20052;-86
2021/12/23 12:07:30;;;;;;;77.93;33.22;;;0.70;99.90;;;;;;5062090;28;20059;-86
2021/12/23 12:10:01;;;;;;;71.95;33.20;;;0.70;99.90;;;;;;5062314;28;20558;-81
2021/12/23 12:12:29;;;;;;;71.40;31.50;;;0.80;99.90;;;;;;5050079;28;20756;-76
2021/12/23 12:14:55;;;;;;;71.95;32.72;;;0.80;99.90;;;;;;5061933;28;20047;-81
2021/12/23 12:17:27;;;;;;;66.88;32.20;;;1.50;99.90;;;;;;5063261;28;20063;-70
2021/12/23 12:20:13;;;;;;;77.18;32.38;;;0.80;99.90;;;;;;5080257;28;20097;-75
2021/12/23 12:22:49;;;;;;;76.55;33.05;;;0.80;99.90;;;;;;5057886;28;20150;-78
2021/12/23 12:25:24;;;;;;;75.75;32.88;;;0.80;99.90;;;;;;5061536;28;20499;-78
2021/12/23 12:27:56;;;;;;;77.25;34.17;;;0.90;99.90;;;;;;5061783;28;20048;-78
2021/12/23 12:30:47;;;;;;;67.75;32.00;;;0.90;99.90;;;;;;5055542;28;20052;-78
2021/12/23 12:33:18;;;;;;;71.82;31.95;;;0.90;99.90;;;;;;5079319;28;20126;-79
2021/12/23 12:35:49;;;;;;;72.82;33.67;;;0.90;99.90;;;;;;5080127;28;20086;-78
2021/12/23 12:38:21;;;;;;;70.15;31.60;;;0.90;99.90;;;;;;5080991;28;20126;-78
2021/12/23 12:41:12;;;;;;;77.40;32.08;;;1.10;99.90;;;;;;5057599;28;20039;-78
2021/12/23 12:43:49;;;;;;;69.68;33.72;;;0.90;99.90;;;;;;5077857;28;20376;-78
2021/12/23 12:46:33;;;;;;;71.80;31.85;;;0.90;99.90;;;;;;5078298;28;20047;-78
2021/12/23 12:48:59;;;;;;;67.68;30.98;;;0.90;99.90;;;;;;5079914;28;20560;-78
2021/12/23 12:51:33;;;;;;;68.93;30.73;;;1.40;99.90;;;;;;5070446;28;20587;-78
2021/12/23 12:54:06;;;;;;;73.40;34.08;;;1.00;99.90;;;;;;5080638;28;20109;-78
2021/12/23 12:56:34;;;;;;;73.55;32.40;;;1.00;99.90;;;;;;5063751;28;20573;-75
2021/12/23 12:59:00;;;;;;;67.35;29.85;;;1.00;99.90;;;;;;5056159;28;20048;-78
2021/12/23 13:01:37;;;;;;;73.65;32.92;;;1.00;99.90;;;;;;5053413;28;20561;-78
2021/12/23 13:04:05;;;;;;;76.75;32.03;;;0.70;99.90;;;;;;5056757;28;20901;-78
2021/12/23 13:06:38;;;;;;;71.60;32.42;;;1.00;99.90;;;;;;5060831;28;20044;-77
2021/12/23 13:09:06;;;;;;;75.30;32.30;;;1.00;99.90;;;;;;5081156;28;20055;-78
2021/12/23 13:11:32;;;;;;;71.50;32.67;;;1.00;99.90;;;;;;5049590;28;20063;-78
2021/12/23 13:14:01;;;;;;;72.85;31.63;;;1.00;99.90;;;;;;5061149;28;20044;-78
2021/12/23 13:16:28;;;;;;;80.57;33.78;;;1.00;99.90;;;;;;5060983;28;20501;-78
2021/12/23 13:19:20;;;;;;;79.25;33.70;;;1.00;99.90;;;;;;5077595;28;20119;-78
2021/12/23 13:21:49;;;;;;;69.90;31.48;;;1.00;99.90;;;;;;5054185;28;20083;-78
2021/12/23 13:24:17;;;;;;;70.95;30.88;;;1.30;99.90;;;;;;5062446;28;20075;-78
2021/12/23 13:26:43;;;;;;;63.85;30.13;;;1.00;99.90;;;;;;5079981;28;20048;-78
2021/12/23 13:29:10;;;;;;;64.38;29.73;;;1.00;99.90;;;;;;5059726;28;20093;-79
2021/12/23 13:31:37;;;;;;;73.60;33.72;;;1.10;99.90;;;;;;5055108;28;20167;-78
2021/12/23 13:34:06;;;;;;;69.57;30.83;;;1.00;99.90;;;;;;5060702;28;20492;-78
2021/12/23 13:36:41;;;;;;;74.75;31.90;;;1.10;99.90;;;;;;5057826;28;20174;-78
2021/12/23 13:39:14;;;;;;;73.40;33.53;;;1.10;99.90;;;;;;5054494;28;21443;-78